This demonstration page uses our WeatherBlox Daily Observations layout. Learn more.

Left ArrowRight Arrow

Hourly Observations for October 3, 2022

Temp ( °F °C ) Dew Point ( °F °C ) Humidity (%) Winds ( mph kmh ) Pressure ( in mb ) Visibility ( mi km ) Precip ( " mm )
12:56 am 00:56 Clear 60 15.6 40 4.4 47 47 SSE 13 20 30.16 1021 10 16 0.00 0.00
1:56 am 01:56 Clear 58 14.4 39 3.9 49 49 S 12 19 30.16 1021 10 16 0.00 0.00
2:56 am 02:56 Clear 57 13.9 38 3.3 49 49 SSE 9 15 30.15 1021 10 16 0.00 0.00
3:56 am 03:56 Clear 53 11.7 38 3.3 56 56 SSE 7 11 30.15 1021 10 16 0.00 0.00
4:56 am 04:56 Clear 50 10 38 3.3 63 63 S 7 11 30.15 1021 10 16 0.00 0.00
5:56 am 05:56 Clear 51 10.6 38 3.3 61 61 SE 5 7 30.15 1021 10 16 0.00 0.00
6:56 am 06:56 Clear 48 8.9 39 3.9 71 71 SSE 7 11 30.16 1021 10 16 0.00 0.00
7:56 am 07:56 Sunny 48 8.9 39 3.9 71 71 SSE 8 13 30.16 1022 10 16 0.00 0.00
8:56 am 08:56 Sunny 56 13.3 40 4.4 55 55 SSE 9 15 30.16 1021 10 16 0.00 0.00
9:56 am 09:56 Sunny 66 18.9 40 4.4 38 38 S 15 24 30.16 1021 10 16 0.00 0.00
10:56 am 10:56 Sunny 72 22.2 41 5 33 33 SSE 17 28 30.15 1021 10 16 0.00 0.00
11:56 am 11:56 Sunny 76 24.4 40 4.4 27 27 S 20 31 30.12 1020 10 16 0.00 0.00
12:56 pm 12:56 Sunny 79 26.1 40 4.4 25 25 S 18 30 30.11 1020 10 16 0.00 0.00
1:56 pm 13:56 Sunny 78 25.6 40 4.4 25 25 SSE 20 31 30.09 1019 10 16 0.00 0.00
2:56 pm 14:56 Sunny 79 26.1 40 4.4 25 25 SSE 18 30 30.06 1018 10 16 0.00 0.00
3:56 pm 15:56 Sunny 80 26.7 37 2.8 21 21 SSE 20 31 30.04 1017 10 16 0.00 0.00
4:56 pm 16:56 Sunny 79 26.1 39 3.9 24 24 SSE 17 28 30.04 1017 10 16 0.00 0.00
5:56 pm 17:56 Sunny 80 26.7 40 4.4 24 24 SSE 18 30 30.02 1017 10 16 0.00 0.00
6:56 pm 18:56 Sunny 76 24.4 40 4.4 27 27 SSE 17 28 30.03 1017 10 16 0.00 0.00
7:56 pm 19:56 Mostly Cloudy 73 22.8 40 4.4 30 30 SSE 13 20 N/A 10 16 0.00 0.00
8:56 pm 20:56 Cloudy 71 21.7 41 5 34 34 SSE 12 19 N/A 10 16 0.00 0.00
9:56 pm 21:56 Mostly Clear 68 20 41 5 37 37 SSE 14 22 N/A 10 16 0.00 0.00
10:56 pm 22:56 Cloudy 67 19.4 41 5 39 39 S 8 13 N/A 10 16 0.00 0.00
11:56 pm 23:56 Cloudy 70 21.1 42 5.6 36 36 SW 6 9 N/A 10 16 0.00 0.00

Powered by AerisWeather